createdAt,value
2022-10-24T00:00:32.261Z,12.73
2022-10-24T00:03:00.248Z,12.77
2022-10-24T00:05:27.660Z,13.43
2022-10-24T00:07:55.160Z,13.70
2022-10-24T00:10:22.839Z,13.05
2022-10-24T00:12:50.217Z,13.10
2022-10-24T00:15:17.574Z,14.30
2022-10-24T00:17:45.188Z,12.90
2022-10-24T00:20:12.901Z,13.10
2022-10-24T00:22:40.255Z,13.02
2022-10-24T00:25:08.149Z,13.38
2022-10-24T00:27:36.308Z,14.27
2022-10-24T00:30:05.484Z,13.80
2022-10-24T00:32:33.189Z,14.00
2022-10-24T00:35:00.540Z,14.32
2022-10-24T00:37:27.878Z,13.60
2022-10-24T00:39:55.491Z,13.82
2022-10-24T00:42:23.093Z,14.85
2022-10-24T00:44:53.093Z,14.65
2022-10-24T00:47:24.786Z,14.23
2022-10-24T00:50:12.358Z,14.63
2022-10-24T00:52:45.391Z,14.20
2022-10-24T00:55:13.828Z,14.27
2022-10-24T00:57:51.664Z,15.05
2022-10-24T01:00:22.225Z,15.00
2022-10-24T01:02:49.929Z,14.50
2022-10-24T01:05:19.277Z,15.18
2022-10-24T01:07:52.525Z,14.27
2022-10-24T01:10:40.784Z,15.10
2022-10-24T01:13:26.708Z,14.75
2022-10-24T01:16:02.176Z,15.45
2022-10-24T01:18:34.622Z,15.80
2022-10-24T01:21:25.097Z,14.57
2022-10-24T01:24:32.583Z,14.93
2022-10-24T01:27:30.358Z,15.35
2022-10-24T01:30:10.568Z,14.95
2022-10-24T01:32:46.003Z,15.55
2022-10-24T01:35:37.064Z,15.05
2022-10-24T01:38:19.659Z,15.60
2022-10-24T01:40:52.538Z,15.30
2022-10-24T01:43:27.744Z,14.95
2022-10-24T01:46:08.541Z,14.52
2022-10-24T01:48:40.525Z,15.63
2022-10-24T01:51:08.300Z,14.98
2022-10-24T01:53:36.304Z,14.80
2022-10-24T01:56:03.868Z,15.05
2022-10-24T01:58:31.220Z,14.30
2022-10-24T02:01:00.612Z,15.43
2022-10-24T02:03:39.534Z,14.80
2022-10-24T02:06:14.023Z,14.87
2022-10-24T02:08:44.413Z,14.10
2022-10-24T02:11:12.590Z,14.77
2022-10-24T02:13:45.667Z,14.65
2022-10-24T02:16:17.002Z,14.07
2022-10-24T02:18:44.570Z,14.32
2022-10-24T02:21:28.205Z,13.93
2022-10-24T02:23:58.775Z,15.05
2022-10-24T02:26:32.489Z,14.38
2022-10-24T02:29:03.434Z,14.45
2022-10-24T02:31:40.588Z,15.32
2022-10-24T02:34:09.802Z,14.23
2022-10-24T02:36:37.902Z,14.27
2022-10-24T02:39:07.035Z,14.73
2022-10-24T02:41:36.845Z,14.07
2022-10-24T02:44:04.690Z,14.30
2022-10-24T02:46:32.465Z,14.00
2022-10-24T02:49:01.563Z,14.85
2022-10-24T02:51:32.188Z,13.68
2022-10-24T02:54:00.852Z,14.00
2022-10-24T02:56:28.655Z,13.32
2022-10-24T02:58:56.079Z,13.50
2022-10-24T03:01:23.836Z,13.55
2022-10-24T03:03:51.280Z,14.40
2022-10-24T03:06:18.659Z,13.32
2022-10-24T03:08:46.281Z,14.65
2022-10-24T03:11:13.627Z,13.90
2022-10-24T03:13:40.962Z,13.35
2022-10-24T03:16:11.608Z,14.05
2022-10-24T03:18:41.418Z,14.10
2022-10-24T03:21:09.011Z,14.40
2022-10-24T03:23:36.309Z,13.18
2022-10-24T03:26:03.635Z,14.05
2022-10-24T03:28:31.248Z,14.32
2022-10-24T03:30:58.576Z,14.23
2022-10-24T03:33:25.924Z,14.43
2022-10-24T03:35:54.233Z,14.80
2022-10-24T03:38:23.134Z,14.98
2022-10-24T03:40:51.053Z,14.85
2022-10-24T03:43:18.904Z,14.35
2022-10-24T03:45:46.653Z,13.65
2022-10-24T03:48:14.179Z,14.40
2022-10-24T03:50:41.876Z,14.95
2022-10-24T03:53:09.213Z,13.65
2022-10-24T03:55:36.619Z,13.40
2022-10-24T03:58:04.368Z,14.15
2022-10-24T04:00:34.668Z,14.45
2022-10-24T04:03:02.340Z,15.02
2022-10-24T04:05:29.737Z,15.57
2022-10-24T04:07:57.125Z,16.60
2022-10-24T04:10:24.690Z,15.30
2022-10-24T04:12:52.036Z,15.52
2022-10-24T04:15:19.436Z,13.90
2022-10-24T04:17:47.341Z,15.32
2022-10-24T04:20:19.445Z,14.87
2022-10-24T04:22:47.679Z,14.05
2022-10-24T04:25:16.324Z,14.75
2022-10-24T04:27:43.973Z,14.70
2022-10-24T04:30:16.558Z,15.00
2022-10-24T04:32:44.902Z,14.55
2022-10-24T04:35:13.905Z,14.95
2022-10-24T04:37:41.314Z,13.38
2022-10-24T04:40:09.517Z,14.63
2022-10-24T04:42:37.263Z,14.65
2022-10-24T04:45:05.129Z,13.48
2022-10-24T04:47:32.702Z,13.98
2022-10-24T04:50:00.293Z,13.45
2022-10-24T04:52:27.626Z,14.52
2022-10-24T04:54:55.024Z,14.63
2022-10-24T04:57:22.631Z,16.25
2022-10-24T04:59:50.103Z,16.65
2022-10-24T05:02:17.549Z,17.30
2022-10-24T05:04:45.195Z,16.65
2022-10-24T05:07:12.518Z,16.92
2022-10-24T05:09:39.856Z,17.55
2022-10-24T05:12:07.568Z,17.73
2022-10-24T05:14:35.003Z,16.87
2022-10-24T05:17:02.440Z,16.98
2022-10-24T05:19:30.222Z,18.30
2022-10-24T05:21:57.561Z,17.42
2022-10-24T05:24:25.047Z,17.02
2022-10-24T05:26:52.654Z,17.87
2022-10-24T05:29:20.002Z,17.30
2022-10-24T05:31:47.461Z,16.25
2022-10-24T05:34:15.117Z,15.68
2022-10-24T05:36:42.497Z,16.60
2022-10-24T05:39:09.892Z,16.37
2022-10-24T05:41:37.548Z,17.60
2022-10-24T05:44:04.990Z,16.67
2022-10-24T05:46:32.602Z,17.75
2022-10-24T05:49:00.375Z,16.55
2022-10-24T05:51:27.733Z,17.42
2022-10-24T05:53:57.454Z,17.95
2022-10-24T05:56:25.766Z,17.27
2022-10-24T05:58:53.172Z,17.23
2022-10-24T06:01:20.774Z,17.90
2022-10-24T06:03:48.449Z,17.95
2022-10-24T06:06:15.897Z,17.05
2022-10-24T06:08:43.237Z,16.87
2022-10-24T06:11:11.677Z,17.62
2022-10-24T06:13:39.538Z,17.80
2022-10-24T06:16:07.360Z,17.90
2022-10-24T06:18:36.164Z,16.98
2022-10-24T06:21:05.494Z,17.62
2022-10-24T06:23:33.231Z,18.77
2022-10-24T06:26:00.868Z,20.70
2022-10-24T06:28:28.295Z,21.58
2022-10-24T06:30:55.678Z,21.75
2022-10-24T06:33:23.323Z,22.70
2022-10-24T06:35:50.697Z,20.85
2022-10-24T06:38:18.044Z,22.70
2022-10-24T06:40:45.682Z,20.80
2022-10-24T06:43:13.043Z,23.02
2022-10-24T06:45:40.389Z,21.40
2022-10-24T06:48:08.024Z,23.75
2022-10-24T06:50:36.982Z,22.20
2022-10-24T06:53:04.332Z,23.23
2022-10-24T06:55:31.939Z,24.05
2022-10-24T06:57:59.629Z,22.98
2022-10-24T07:02:59.681Z,25.12
2022-10-24T07:05:27.166Z,23.80
2022-10-24T07:07:54.546Z,23.15
2022-10-24T07:10:22.251Z,24.58
2022-10-24T07:12:49.619Z,23.62
2022-10-24T07:15:17.050Z,24.08
2022-10-24T07:17:45.327Z,23.67
2022-10-24T07:20:13.300Z,23.67
2022-10-24T07:22:41.888Z,23.73
2022-10-24T07:25:09.752Z,24.87
2022-10-24T07:27:37.248Z,24.10
2022-10-24T07:30:06.125Z,23.05
2022-10-24T07:32:34.096Z,23.75
2022-10-24T07:35:01.484Z,23.42
2022-10-24T07:37:28.835Z,23.80
2022-10-24T07:39:56.481Z,23.23
2022-10-24T07:42:23.791Z,23.38
2022-10-24T07:44:51.263Z,21.02
2022-10-24T07:47:18.901Z,21.95
2022-10-24T07:49:46.244Z,22.25
2022-10-24T07:52:13.609Z,23.27
2022-10-24T07:54:41.252Z,21.20
2022-10-24T07:57:08.623Z,23.40
2022-10-24T07:59:43.193Z,20.85
2022-10-24T08:02:14.750Z,21.92
2022-10-24T08:04:42.464Z,21.33
2022-10-24T08:07:14.326Z,22.48
2022-10-24T08:09:45.019Z,21.58
2022-10-24T08:12:12.662Z,23.73
2022-10-24T08:14:41.167Z,23.38
2022-10-24T08:17:09.132Z,24.00
2022-10-24T08:19:43.787Z,22.40
2022-10-24T08:22:12.461Z,24.75
2022-10-24T08:24:39.829Z,23.20
2022-10-24T08:27:07.249Z,22.58
2022-10-24T08:29:35.556Z,22.87
2022-10-24T08:32:02.977Z,22.25
2022-10-24T08:34:30.419Z,23.48
2022-10-24T08:36:58.080Z,22.62
2022-10-24T08:39:27.027Z,21.12
2022-10-24T08:41:59.507Z,20.67
2022-10-24T08:44:40.418Z,21.12
2022-10-24T08:47:29.689Z,20.02
2022-10-24T08:50:09.384Z,21.33
2022-10-24T08:52:49.871Z,19.75
2022-10-24T08:55:48.094Z,22.08
2022-10-24T08:58:31.361Z,21.48
2022-10-24T09:01:01.140Z,22.00
2022-10-24T09:03:55.074Z,21.60
2022-10-24T09:06:29.482Z,21.15
2022-10-24T09:08:58.517Z,21.95
2022-10-24T09:11:41.698Z,21.00
2022-10-24T09:14:14.414Z,22.75
2022-10-24T09:16:44.441Z,20.95
2022-10-24T09:19:15.894Z,20.60
2022-10-24T09:21:43.913Z,21.60
2022-10-24T09:24:23.112Z,23.08
2022-10-24T09:26:50.776Z,20.40
2022-10-24T09:29:18.182Z,22.55
2022-10-24T09:31:49.382Z,21.48
2022-10-24T09:34:17.458Z,20.75
2022-10-24T09:36:44.821Z,20.65
2022-10-24T09:39:32.804Z,21.55
2022-10-24T09:42:01.759Z,20.85
2022-10-24T09:44:31.513Z,20.90
2022-10-24T09:46:59.088Z,21.00
2022-10-24T09:49:33.483Z,20.42
2022-10-24T09:52:16.105Z,21.83
2022-10-24T09:54:44.806Z,20.77
2022-10-24T09:57:12.083Z,20.52
2022-10-24T10:00:03.489Z,20.95
2022-10-24T10:02:37.614Z,18.52
2022-10-24T10:05:05.226Z,20.30
2022-10-24T10:07:38.776Z,19.30
2022-10-24T10:10:18.619Z,20.08
2022-10-24T10:12:55.280Z,18.60
2022-10-24T10:15:31.077Z,19.45
2022-10-24T10:18:03.934Z,19.30
2022-10-24T10:20:37.132Z,18.30
2022-10-24T10:23:17.489Z,18.98
2022-10-24T10:25:45.123Z,18.80
2022-10-24T10:28:21.181Z,18.60
2022-10-24T10:30:55.261Z,17.58
2022-10-24T10:33:53.904Z,18.30
2022-10-24T10:36:25.380Z,18.75
2022-10-24T10:39:30.381Z,18.40
2022-10-24T10:42:03.688Z,17.62
2022-10-24T10:44:40.096Z,17.85
2022-10-24T10:47:38.915Z,19.65
2022-10-24T10:50:39.744Z,19.37
2022-10-24T10:53:31.741Z,17.42
2022-10-24T10:56:21.182Z,17.23
2022-10-24T10:59:04.167Z,17.45
2022-10-24T11:01:53.320Z,18.17
2022-10-24T11:04:42.638Z,15.70
2022-10-24T11:07:23.344Z,15.27
2022-10-24T11:09:52.894Z,15.13
2022-10-24T11:12:26.636Z,16.00
2022-10-24T11:15:09.773Z,15.80
2022-10-24T11:17:59.335Z,16.58
2022-10-24T11:20:29.825Z,17.70
2022-10-24T11:23:02.300Z,17.55
2022-10-24T11:25:32.015Z,17.20
2022-10-24T11:28:07.723Z,16.40
2022-10-24T11:30:42.633Z,17.08
2022-10-24T11:35:44.803Z,15.00
2022-10-24T11:38:24.304Z,16.45
2022-10-24T11:40:58.886Z,16.65
2022-10-24T11:43:37.901Z,16.67
2022-10-24T11:46:12.620Z,15.68
2022-10-24T11:48:53.322Z,16.05
2022-10-24T11:51:36.048Z,15.07
2022-10-24T11:54:05.599Z,14.75
2022-10-24T11:56:50.442Z,14.02
2022-10-24T11:59:24.470Z,15.68
2022-10-24T12:01:54.954Z,16.15
2022-10-24T12:04:37.471Z,16.12
2022-10-24T12:07:13.549Z,16.20
2022-10-24T12:10:02.118Z,17.75
2022-10-24T12:12:56.879Z,15.65
2022-10-24T12:15:35.479Z,15.02
2022-10-24T12:18:12.176Z,15.38
2022-10-24T12:20:40.466Z,16.95
2022-10-24T12:23:08.191Z,15.55
2022-10-24T12:25:37.239Z,14.90
2022-10-24T12:28:08.721Z,14.85
2022-10-24T12:30:36.782Z,15.68
2022-10-24T12:33:08.735Z,15.90
2022-10-24T12:35:44.522Z,16.67
2022-10-24T12:38:16.316Z,17.15
2022-10-24T12:41:05.855Z,16.65
2022-10-24T12:43:44.350Z,16.37
2022-10-24T12:46:18.811Z,19.12
2022-10-24T12:48:59.212Z,16.62
2022-10-24T12:51:28.889Z,16.87
2022-10-24T12:54:11.024Z,16.52
2022-10-24T12:56:50.540Z,16.23
2022-10-24T12:59:22.634Z,17.23
2022-10-24T13:02:11.716Z,17.27
2022-10-24T13:04:42.137Z,17.55
2022-10-24T13:07:18.083Z,17.75
2022-10-24T13:09:55.617Z,17.75
2022-10-24T13:12:56.902Z,18.23
2022-10-24T13:15:42.146Z,17.37
2022-10-24T13:18:21.830Z,17.83
2022-10-24T13:20:50.367Z,17.98
2022-10-24T13:23:24.969Z,18.77
2022-10-24T13:25:57.289Z,17.65
2022-10-24T13:28:24.865Z,17.75
2022-10-24T13:30:58.600Z,18.48
2022-10-24T13:33:29.003Z,17.73
2022-10-24T13:36:09.692Z,17.90
2022-10-24T13:38:41.940Z,18.40
2022-10-24T13:41:11.386Z,18.73
2022-10-24T13:43:43.414Z,17.80
2022-10-24T13:46:13.243Z,17.60
2022-10-24T13:48:46.668Z,18.35
2022-10-24T13:51:47.588Z,19.20
2022-10-24T13:54:21.299Z,19.87
2022-10-24T13:56:48.853Z,20.70
2022-10-24T13:59:31.783Z,20.25
2022-10-24T14:02:02.871Z,21.00
2022-10-24T14:04:30.893Z,20.88
2022-10-24T14:07:03.862Z,20.95
2022-10-24T14:09:39.363Z,20.30
2022-10-24T14:12:06.789Z,21.98
2022-10-24T14:14:40.044Z,21.20
2022-10-24T14:17:31.507Z,22.25
2022-10-24T14:20:13.382Z,21.52
2022-10-24T14:22:41.264Z,22.33
2022-10-24T14:25:30.087Z,22.55
2022-10-24T14:28:03.880Z,21.05
2022-10-24T14:30:35.029Z,21.48
2022-10-24T14:33:12.984Z,23.08
2022-10-24T14:35:41.145Z,22.70
2022-10-24T14:38:13.723Z,22.27
2022-10-24T14:40:43.242Z,22.05
2022-10-24T14:43:24.423Z,21.25
2022-10-24T14:46:13.037Z,22.37
2022-10-24T14:48:46.142Z,21.55
2022-10-24T14:51:16.683Z,21.02
2022-10-24T14:53:44.974Z,21.52
2022-10-24T14:56:25.084Z,22.50
2022-10-24T14:58:54.719Z,21.73
2022-10-24T15:01:23.628Z,22.85
2022-10-24T15:04:01.107Z,23.67
2022-10-24T15:06:37.557Z,22.87
2022-10-24T15:09:10.987Z,22.25
2022-10-24T15:11:41.221Z,23.40
2022-10-24T15:14:36.777Z,21.65
2022-10-24T15:17:31.647Z,18.52
2022-10-24T15:20:01.739Z,19.05
2022-10-24T15:22:32.327Z,18.83
2022-10-24T15:25:02.134Z,19.50
2022-10-24T15:27:37.338Z,18.75
2022-10-24T15:30:20.152Z,17.17
2022-10-24T15:32:49.229Z,19.80
2022-10-24T15:35:18.032Z,19.08
2022-10-24T15:37:56.706Z,19.23
2022-10-24T15:40:30.448Z,19.23
2022-10-24T15:42:57.823Z,20.45
2022-10-24T15:45:25.546Z,20.90
2022-10-24T15:47:53.144Z,20.00
2022-10-24T15:52:57.366Z,19.60
2022-10-24T15:55:27.066Z,19.15
2022-10-24T15:57:54.851Z,18.27
2022-10-24T16:00:22.991Z,18.62
2022-10-24T16:02:53.308Z,19.48
2022-10-24T16:05:24.153Z,22.35
2022-10-24T16:07:52.240Z,34.08
2022-10-24T16:10:21.313Z,25.23
2022-10-24T16:12:49.879Z,18.55
2022-10-24T16:15:21.500Z,20.75
2022-10-24T16:17:49.256Z,30.88
2022-10-24T16:20:17.145Z,26.58
2022-10-24T16:22:45.099Z,21.50
2022-10-24T16:25:24.172Z,20.02
2022-10-24T16:27:52.352Z,21.10
2022-10-24T16:30:23.306Z,18.80
2022-10-24T16:32:50.966Z,19.02
2022-10-24T16:35:24.853Z,31.55
2022-10-24T16:37:53.470Z,22.75
2022-10-24T16:40:22.130Z,31.00
2022-10-24T16:42:50.932Z,34.25
2022-10-24T16:45:19.203Z,30.20
2022-10-24T16:47:48.014Z,26.10
2022-10-24T16:50:17.563Z,20.45
2022-10-24T16:52:45.283Z,20.58
2022-10-24T16:55:13.666Z,19.58
2022-10-24T16:57:41.422Z,18.92
2022-10-24T17:00:14.575Z,19.80
2022-10-24T17:02:47.121Z,18.73
2022-10-24T17:05:15.365Z,18.58
2022-10-24T17:07:43.186Z,20.42
2022-10-24T17:10:12.687Z,19.58
2022-10-24T17:12:42.430Z,17.80
2022-10-24T17:15:10.561Z,19.15
2022-10-24T17:17:40.673Z,18.30
2022-10-24T17:20:09.928Z,18.62
2022-10-24T17:22:38.798Z,19.67
2022-10-24T17:25:07.685Z,18.75
2022-10-24T17:27:35.569Z,18.33
2022-10-24T17:30:04.002Z,19.27
2022-10-24T17:32:33.159Z,19.52
2022-10-24T17:35:01.087Z,17.33
2022-10-24T17:37:58.672Z,17.55
2022-10-24T17:40:28.977Z,18.12
2022-10-24T17:42:57.612Z,18.62
2022-10-24T17:45:26.335Z,19.52
2022-10-24T17:47:54.234Z,22.35
2022-10-24T17:50:22.292Z,24.83
2022-10-24T17:52:51.660Z,18.75
2022-10-24T17:55:44.972Z,17.27
2022-10-24T17:58:13.745Z,16.23
2022-10-24T18:00:41.726Z,18.27
2022-10-24T18:03:09.898Z,19.02
2022-10-24T18:05:38.772Z,17.12
2022-10-24T18:08:08.776Z,16.77
2022-10-24T18:10:39.154Z,17.27
2022-10-24T18:13:07.724Z,17.85
2022-10-24T18:15:36.744Z,18.45
2022-10-24T18:18:05.721Z,18.92
2022-10-24T18:20:33.257Z,18.77
2022-10-24T18:23:01.373Z,18.73
2022-10-24T18:25:29.583Z,21.05
2022-10-24T18:27:57.429Z,20.77
2022-10-24T18:30:25.387Z,20.67
2022-10-24T18:32:53.574Z,21.02
2022-10-24T18:35:22.449Z,21.87
2022-10-24T18:37:50.585Z,21.73
2022-10-24T18:40:18.522Z,21.55
2022-10-24T18:42:52.087Z,22.85
2022-10-24T18:45:23.543Z,28.33
2022-10-24T18:47:52.032Z,24.33
2022-10-24T18:50:22.883Z,28.75
2022-10-24T18:53:16.795Z,24.48
2022-10-24T18:55:47.286Z,25.42
2022-10-24T18:58:19.875Z,22.27
2022-10-24T19:00:48.291Z,23.33
2022-10-24T19:03:31.278Z,21.52
2022-10-24T19:06:04.317Z,21.80
2022-10-24T19:08:32.224Z,20.25
2022-10-24T19:11:00.555Z,21.87
2022-10-24T19:13:28.447Z,19.67
2022-10-24T19:16:04.424Z,20.40
2022-10-24T19:18:34.582Z,20.95
2022-10-24T19:21:04.799Z,21.12
2022-10-24T19:23:32.542Z,21.25
2022-10-24T19:26:00.301Z,20.10
2022-10-24T19:28:28.096Z,19.85
2022-10-24T19:30:55.793Z,19.52
2022-10-24T19:33:41.770Z,20.27
2022-10-24T19:36:11.537Z,21.55
2022-10-24T19:38:41.496Z,21.15
2022-10-24T19:41:11.752Z,20.37
2022-10-24T19:43:39.694Z,20.77
2022-10-24T19:46:19.407Z,20.37
2022-10-24T19:48:49.631Z,20.95
2022-10-24T19:51:18.657Z,21.35
2022-10-24T19:53:47.085Z,21.98
2022-10-24T19:56:23.887Z,23.50
2022-10-24T19:58:54.159Z,24.98
2022-10-24T20:01:36.391Z,21.42
2022-10-24T20:04:05.010Z,20.62
2022-10-24T20:06:33.104Z,22.30
2022-10-24T20:09:00.769Z,22.20
2022-10-24T20:11:28.768Z,21.92
2022-10-24T20:13:57.622Z,23.62
2022-10-24T20:16:25.480Z,21.65
2022-10-24T20:18:53.553Z,22.05
2022-10-24T20:21:21.178Z,21.77
2022-10-24T20:23:49.351Z,23.05
2022-10-24T20:26:21.684Z,22.52
2022-10-24T20:28:51.017Z,24.45
2022-10-24T20:31:25.011Z,23.05
2022-10-24T20:33:53.019Z,22.62
2022-10-24T20:36:23.624Z,23.27
2022-10-24T20:38:50.985Z,22.92
2022-10-24T20:41:18.783Z,25.10
2022-10-24T20:43:46.962Z,24.92
2022-10-24T20:46:14.747Z,25.88
2022-10-24T20:48:42.156Z,26.20
2022-10-24T20:51:15.390Z,28.33
2022-10-24T20:53:43.160Z,28.48
2022-10-24T20:56:16.544Z,27.92
2022-10-24T20:58:45.000Z,27.02
2022-10-24T21:01:21.193Z,26.42
2022-10-24T21:03:49.843Z,28.55
2022-10-24T21:06:29.735Z,27.42
2022-10-24T21:09:00.485Z,26.70
2022-10-24T21:11:29.831Z,27.02
2022-10-24T21:14:00.496Z,24.95
2022-10-24T21:16:28.774Z,23.87
2022-10-24T21:18:57.862Z,25.08
2022-10-24T21:21:25.843Z,22.58
2022-10-24T21:23:55.455Z,23.90
2022-10-24T21:26:23.291Z,22.45
2022-10-24T21:28:59.405Z,22.77
2022-10-24T21:31:36.696Z,23.05
2022-10-24T21:36:36.603Z,22.40
2022-10-24T21:39:03.962Z,20.10
2022-10-24T21:41:31.283Z,20.88
2022-10-24T21:43:58.967Z,20.00
2022-10-24T21:46:29.151Z,21.08
2022-10-24T21:48:57.265Z,21.00
2022-10-24T21:51:30.321Z,20.65
2022-10-24T21:54:00.233Z,20.17
2022-10-24T21:56:30.248Z,20.20
2022-10-24T21:58:59.904Z,19.65
2022-10-24T22:01:37.411Z,19.83
2022-10-24T22:04:06.544Z,22.02
2022-10-24T22:06:34.945Z,22.58
2022-10-24T22:09:03.462Z,22.75
2022-10-24T22:11:32.311Z,22.80
2022-10-24T22:14:00.143Z,21.25
2022-10-24T22:16:29.574Z,22.35
2022-10-24T22:19:02.604Z,22.27
2022-10-24T22:21:33.926Z,21.25
2022-10-24T22:26:32.763Z,19.48
2022-10-24T22:29:00.385Z,22.65
2022-10-24T22:31:29.239Z,21.45
2022-10-24T22:33:57.515Z,20.62
2022-10-24T22:36:39.781Z,20.08
2022-10-24T22:39:21.906Z,21.70
2022-10-24T22:41:49.799Z,21.58
2022-10-24T22:44:20.637Z,22.15
2022-10-24T22:47:00.207Z,21.02
2022-10-24T22:49:36.711Z,21.48
2022-10-24T22:52:04.374Z,22.37
2022-10-24T22:54:35.602Z,22.35
2022-10-24T22:57:04.468Z,21.27
2022-10-24T22:59:32.891Z,22.23
2022-10-24T23:02:00.358Z,21.73
2022-10-24T23:04:45.942Z,22.85
2022-10-24T23:07:39.686Z,22.52
2022-10-24T23:10:10.633Z,21.95
2022-10-24T23:12:38.612Z,23.12
2022-10-24T23:15:06.712Z,23.08
2022-10-24T23:17:34.412Z,22.67
2022-10-24T23:20:02.392Z,22.17
2022-10-24T23:22:33.279Z,23.35
2022-10-24T23:25:01.428Z,21.80
2022-10-24T23:27:31.772Z,23.48
2022-10-24T23:29:59.375Z,22.92
2022-10-24T23:32:29.653Z,21.80
2022-10-24T23:34:58.327Z,22.67
2022-10-24T23:37:31.922Z,23.15
2022-10-24T23:40:01.976Z,23.10
2022-10-24T23:42:29.634Z,23.33
2022-10-24T23:44:57.193Z,22.20
2022-10-24T23:47:42.968Z,23.83
2022-10-24T23:50:31.529Z,23.62
2022-10-24T23:53:12.533Z,22.87
2022-10-24T23:55:40.112Z,24.25
2022-10-24T23:58:11.055Z,25.52
